createdAt,value
2017-12-15T00:02:16.346Z,1.00
2017-12-15T00:04:44.954Z,1.10
2017-12-15T00:07:13.468Z,0.93
2017-12-15T00:09:42.113Z,1.07
2017-12-15T00:12:10.613Z,1.40
2017-12-15T00:14:39.065Z,0.93
2017-12-15T00:17:07.769Z,1.00
2017-12-15T00:19:36.236Z,1.10
2017-12-15T00:22:04.823Z,1.20
2017-12-15T00:24:33.327Z,0.90
2017-12-15T00:27:01.947Z,0.90
2017-12-15T00:29:30.408Z,1.10
2017-12-15T00:31:58.961Z,0.90
2017-12-15T00:34:27.721Z,0.80
2017-12-15T00:36:56.281Z,0.87
2017-12-15T00:39:24.900Z,1.00
2017-12-15T00:41:53.410Z,1.00
2017-12-15T00:44:21.866Z,0.90
2017-12-15T00:46:50.409Z,1.30
2017-12-15T00:49:18.836Z,1.10
2017-12-15T00:51:47.402Z,1.10
2017-12-15T00:54:15.995Z,0.90
2017-12-15T00:56:44.509Z,0.90
2017-12-15T00:59:12.979Z,1.20
2017-12-15T01:01:41.468Z,1.00
2017-12-15T01:04:10.156Z,0.93
2017-12-15T01:06:38.705Z,0.87
2017-12-15T01:09:07.191Z,0.90
2017-12-15T01:11:35.781Z,1.23
2017-12-15T01:14:04.265Z,0.90
2017-12-15T01:16:32.957Z,0.90
2017-12-15T01:19:01.637Z,0.80
2017-12-15T01:21:30.337Z,0.83
2017-12-15T01:23:59.008Z,1.00
2017-12-15T01:26:27.742Z,1.00
2017-12-15T01:28:56.202Z,0.93
2017-12-15T01:31:24.751Z,0.90
2017-12-15T01:33:53.204Z,0.83
2017-12-15T01:36:21.673Z,1.20
2017-12-15T01:38:50.143Z,1.00
2017-12-15T01:41:18.619Z,1.00
2017-12-15T01:43:47.105Z,0.83
2017-12-15T01:46:15.811Z,0.80
2017-12-15T01:48:44.261Z,0.93
2017-12-15T01:51:13.110Z,0.93
2017-12-15T01:53:41.741Z,0.90
2017-12-15T01:56:10.285Z,1.00
2017-12-15T01:58:38.836Z,0.90
2017-12-15T02:01:07.546Z,0.80
2017-12-15T02:03:36.110Z,0.80
2017-12-15T02:06:04.619Z,1.00
2017-12-15T02:08:33.080Z,0.77
2017-12-15T02:11:01.617Z,1.00
2017-12-15T02:13:30.467Z,0.80
2017-12-15T02:15:59.200Z,1.00
2017-12-15T02:18:27.829Z,0.97
2017-12-15T02:20:56.426Z,0.90
2017-12-15T02:23:24.989Z,0.90
2017-12-15T02:25:53.486Z,1.07
2017-12-15T02:28:22.109Z,1.00
2017-12-15T02:30:50.594Z,1.00
2017-12-15T02:33:19.062Z,1.00
2017-12-15T02:35:47.529Z,1.13
2017-12-15T02:38:15.982Z,0.90
2017-12-15T02:40:44.525Z,1.00
2017-12-15T02:43:13.025Z,1.07
2017-12-15T02:45:41.529Z,1.13
2017-12-15T02:48:09.995Z,0.90
2017-12-15T02:50:38.488Z,1.10
2017-12-15T02:53:06.972Z,1.03
2017-12-15T02:55:35.506Z,1.00
2017-12-15T02:58:04.016Z,1.30
2017-12-15T03:00:32.613Z,1.00
2017-12-15T03:03:01.570Z,0.90
2017-12-15T03:05:30.208Z,0.97
2017-12-15T03:07:58.838Z,0.80
2017-12-15T03:10:27.319Z,1.10
2017-12-15T03:12:55.846Z,1.20
2017-12-15T03:15:24.544Z,1.00
2017-12-15T03:17:53.024Z,1.10
2017-12-15T03:20:21.730Z,1.03
2017-12-15T03:22:50.270Z,1.10
2017-12-15T03:25:18.895Z,1.10
2017-12-15T03:27:47.400Z,0.90
2017-12-15T03:30:16.073Z,0.93
2017-12-15T03:32:44.626Z,1.00
2017-12-15T03:35:13.159Z,1.40
2017-12-15T03:37:41.633Z,1.30
2017-12-15T03:40:10.180Z,0.90
2017-12-15T03:42:38.686Z,0.90
2017-12-15T03:45:07.341Z,1.13
2017-12-15T03:47:35.799Z,1.20
2017-12-15T03:50:04.317Z,1.17
2017-12-15T03:52:32.962Z,0.80
2017-12-15T03:55:01.452Z,0.90
2017-12-15T03:57:29.996Z,1.10
2017-12-15T03:59:58.634Z,0.83
2017-12-15T04:02:27.326Z,1.10
2017-12-15T04:04:55.766Z,1.00
2017-12-15T04:07:24.294Z,1.10
2017-12-15T04:09:52.781Z,1.00
2017-12-15T04:12:21.307Z,0.90
2017-12-15T04:14:49.751Z,1.00
2017-12-15T04:17:18.252Z,0.90
2017-12-15T04:19:46.727Z,1.00
2017-12-15T04:22:15.218Z,1.00
2017-12-15T04:24:43.825Z,1.13
2017-12-15T04:27:12.594Z,0.90
2017-12-15T04:29:41.213Z,1.10
2017-12-15T04:32:09.925Z,0.90
2017-12-15T04:34:38.569Z,1.03
2017-12-15T04:37:07.117Z,1.10
2017-12-15T04:39:35.616Z,1.00
2017-12-15T04:42:04.169Z,1.03
2017-12-15T04:44:32.718Z,0.90
2017-12-15T04:47:01.328Z,1.10
2017-12-15T04:49:29.789Z,0.93
2017-12-15T04:51:58.325Z,1.00
2017-12-15T04:54:27.057Z,1.07
2017-12-15T04:56:55.774Z,1.20
2017-12-15T04:59:24.430Z,1.10
2017-12-15T05:04:48.895Z,1.07
2017-12-15T05:07:17.525Z,0.90
2017-12-15T05:09:46.009Z,1.00
2017-12-15T05:12:14.828Z,1.07
2017-12-15T05:14:43.387Z,0.93
2017-12-15T05:17:12.063Z,1.10
2017-12-15T05:19:40.621Z,1.13
2017-12-15T05:22:09.181Z,0.97
2017-12-15T05:24:37.657Z,0.87
2017-12-15T05:27:06.190Z,1.00
2017-12-15T05:29:34.708Z,1.00
2017-12-15T05:32:03.337Z,0.80
2017-12-15T05:34:31.799Z,1.00
2017-12-15T05:37:00.309Z,0.93
2017-12-15T05:39:28.790Z,1.10
2017-12-15T05:41:57.490Z,1.00
2017-12-15T05:44:26.196Z,1.10
2017-12-15T05:46:55.037Z,1.07
2017-12-15T05:49:23.488Z,1.10
2017-12-15T05:51:52.002Z,1.03
2017-12-15T05:54:20.463Z,0.90
2017-12-15T05:56:49.193Z,1.10
2017-12-15T05:59:17.699Z,1.00
2017-12-15T06:01:46.257Z,1.03
2017-12-15T06:04:14.719Z,0.90
2017-12-15T06:06:43.609Z,0.80
2017-12-15T06:09:12.070Z,1.10
2017-12-15T06:11:40.595Z,0.90
2017-12-15T06:14:09.135Z,1.10
2017-12-15T06:16:37.886Z,1.03
2017-12-15T06:19:06.537Z,1.10
2017-12-15T06:21:35.039Z,1.30
2017-12-15T06:24:03.679Z,0.93
2017-12-15T06:26:32.245Z,1.03
2017-12-15T06:29:00.746Z,0.90
2017-12-15T06:31:29.397Z,1.70
2017-12-15T06:33:58.021Z,1.40
2017-12-15T06:36:26.530Z,1.60
2017-12-15T06:38:55.042Z,1.30
2017-12-15T06:41:23.557Z,1.50
2017-12-15T06:43:52.117Z,1.63
2017-12-15T06:46:20.620Z,1.93
2017-12-15T06:48:49.098Z,1.63
2017-12-15T06:51:17.586Z,1.70
2017-12-15T06:53:46.037Z,1.90
2017-12-15T06:56:14.561Z,1.80
2017-12-15T06:58:49.993Z,2.40
2017-12-15T07:01:18.718Z,2.40
2017-12-15T07:03:47.367Z,2.20
2017-12-15T07:06:15.973Z,1.90
2017-12-15T07:08:44.443Z,2.20
2017-12-15T07:11:12.985Z,2.10
2017-12-15T07:13:41.717Z,2.00
2017-12-15T07:16:10.419Z,2.40
2017-12-15T07:18:39.073Z,1.90
2017-12-15T07:21:07.700Z,2.30
2017-12-15T07:23:36.401Z,1.77
2017-12-15T07:26:04.921Z,2.00
2017-12-15T07:28:33.376Z,2.07
2017-12-15T07:31:01.945Z,2.00
2017-12-15T07:33:30.608Z,1.97
2017-12-15T07:35:59.281Z,2.10
2017-12-15T07:38:27.912Z,1.70
2017-12-15T07:40:56.460Z,2.37
2017-12-15T07:43:24.944Z,2.57
2017-12-15T07:45:54.303Z,2.33
2017-12-15T07:48:23.484Z,2.73
2017-12-15T07:50:52.020Z,2.87
2017-12-15T07:53:20.904Z,3.07
2017-12-15T07:55:49.572Z,2.37
2017-12-15T07:58:18.245Z,1.93
2017-12-15T08:00:46.853Z,2.90
2017-12-15T08:03:15.421Z,2.43
2017-12-15T08:05:43.949Z,2.43
2017-12-15T08:08:12.442Z,2.60
2017-12-15T08:10:40.953Z,2.80
2017-12-15T08:13:09.564Z,2.00
2017-12-15T08:15:38.580Z,2.87
2017-12-15T08:18:07.259Z,2.80
2017-12-15T08:20:35.824Z,3.20
2017-12-15T08:23:04.957Z,2.83
2017-12-15T08:25:33.621Z,3.00
2017-12-15T08:28:02.342Z,2.97
2017-12-15T08:30:31.661Z,2.80
2017-12-15T08:33:00.269Z,2.80
2017-12-15T08:35:28.948Z,3.13
2017-12-15T08:37:57.645Z,3.10
2017-12-15T08:40:26.333Z,3.30
2017-12-15T08:42:54.855Z,3.20
2017-12-15T08:45:23.345Z,3.33
2017-12-15T08:47:51.990Z,2.80
2017-12-15T08:50:20.514Z,2.97
2017-12-15T08:52:48.986Z,3.17
2017-12-15T08:55:17.627Z,3.53
2017-12-15T08:57:46.154Z,3.30
2017-12-15T09:00:14.854Z,2.57
2017-12-15T09:02:43.452Z,2.90
2017-12-15T09:05:11.978Z,2.83
2017-12-15T09:07:40.462Z,3.10
2017-12-15T09:10:09.140Z,2.90
2017-12-15T09:12:37.637Z,2.53
2017-12-15T09:15:06.296Z,2.63
2017-12-15T09:17:34.796Z,2.43
2017-12-15T09:20:03.291Z,2.60
2017-12-15T09:22:32.482Z,2.30
2017-12-15T09:25:01.288Z,2.53
2017-12-15T09:27:29.913Z,2.27
2017-12-15T09:29:58.457Z,2.60
2017-12-15T09:34:36.911Z,2.23
2017-12-15T09:37:05.347Z,2.27
2017-12-15T09:39:33.631Z,2.57
2017-12-15T09:42:01.991Z,2.20
2017-12-15T09:44:30.351Z,2.47
2017-12-15T09:46:58.713Z,2.10
2017-12-15T09:49:27.215Z,2.10
2017-12-15T09:51:55.694Z,2.20
2017-12-15T09:54:24.064Z,2.20
2017-12-15T09:56:52.363Z,2.13
2017-12-15T09:59:20.699Z,2.00
2017-12-15T10:01:49.107Z,2.03
2017-12-15T10:04:17.378Z,1.90
2017-12-15T10:06:45.669Z,2.30
2017-12-15T10:09:13.951Z,2.00
2017-12-15T10:11:42.248Z,2.13
2017-12-15T10:14:10.470Z,1.90
2017-12-15T10:16:39.007Z,2.33
2017-12-15T10:19:07.428Z,2.23
2017-12-15T10:21:35.944Z,2.43
2017-12-15T10:24:04.380Z,2.20
2017-12-15T10:26:32.880Z,2.23
2017-12-15T10:29:01.171Z,2.53
2017-12-15T10:31:29.689Z,2.67
2017-12-15T10:33:58.351Z,3.03
2017-12-15T10:36:26.901Z,3.23
2017-12-15T10:38:55.201Z,2.57
2017-12-15T10:41:23.479Z,3.30
2017-12-15T10:43:51.772Z,2.97
2017-12-15T10:46:20.054Z,2.47
2017-12-15T10:48:48.323Z,2.30
2017-12-15T10:51:16.787Z,2.80
2017-12-15T10:53:45.089Z,2.37
2017-12-15T10:56:13.364Z,2.87
2017-12-15T10:58:41.627Z,2.80
2017-12-15T11:01:09.916Z,2.80
2017-12-15T11:03:38.348Z,2.30
2017-12-15T11:06:06.698Z,2.43
2017-12-15T11:08:34.996Z,2.60
2017-12-15T11:11:03.506Z,2.60
2017-12-15T11:13:31.838Z,2.07
2017-12-15T11:16:00.259Z,2.80
2017-12-15T11:18:28.635Z,2.30
2017-12-15T11:20:56.941Z,2.57
2017-12-15T11:23:25.408Z,2.97
2017-12-15T11:25:53.743Z,2.97
2017-12-15T11:28:22.207Z,2.30
2017-12-15T11:30:50.504Z,2.43
2017-12-15T11:33:18.818Z,2.50
2017-12-15T11:35:47.152Z,2.13
2017-12-15T11:38:15.447Z,2.33
2017-12-15T11:40:43.723Z,2.43
2017-12-15T11:43:12.036Z,2.07
2017-12-15T11:45:40.344Z,2.00
2017-12-15T11:48:08.655Z,2.07
2017-12-15T11:50:37.113Z,2.40
2017-12-15T11:53:05.416Z,2.03
2017-12-15T11:55:33.716Z,2.23
2017-12-15T11:58:02.064Z,2.30
2017-12-15T12:00:30.331Z,1.70
2017-12-15T12:02:58.573Z,2.23
2017-12-15T12:05:26.997Z,2.20
2017-12-15T12:07:55.247Z,2.17
2017-12-15T12:10:23.566Z,2.10
2017-12-15T12:12:51.815Z,2.03
2017-12-15T12:15:20.100Z,2.03
2017-12-15T12:17:48.492Z,1.97
2017-12-15T12:20:16.809Z,2.30
2017-12-15T12:22:45.092Z,2.10
2017-12-15T12:25:13.631Z,2.40
2017-12-15T12:27:42.103Z,2.27
2017-12-15T12:30:10.430Z,1.87
2017-12-15T12:32:38.760Z,1.97
2017-12-15T12:35:07.127Z,1.70
2017-12-15T12:37:35.421Z,1.90
2017-12-15T12:40:03.708Z,1.83
2017-12-15T12:42:31.987Z,1.80
2017-12-15T12:45:00.252Z,3.03
2017-12-15T12:47:28.640Z,2.40
2017-12-15T12:49:56.958Z,2.30
2017-12-15T12:52:25.319Z,2.33
2017-12-15T12:54:53.715Z,2.00
2017-12-15T12:57:22.065Z,2.40
2017-12-15T12:59:50.363Z,2.00
2017-12-15T13:02:18.680Z,2.03
2017-12-15T13:04:46.956Z,1.67
2017-12-15T13:07:15.294Z,2.20
2017-12-15T13:09:43.577Z,1.90
2017-12-15T13:12:12.107Z,2.07
2017-12-15T13:14:40.476Z,2.20
2017-12-15T13:17:08.775Z,1.67
2017-12-15T13:19:37.036Z,1.67
2017-12-15T13:22:05.480Z,1.50
2017-12-15T13:24:33.911Z,1.73
2017-12-15T13:27:02.192Z,1.50
2017-12-15T13:29:30.607Z,2.23
2017-12-15T13:31:58.887Z,1.93
2017-12-15T13:34:27.183Z,1.87
2017-12-15T13:36:55.563Z,1.73
2017-12-15T13:39:23.919Z,1.77
2017-12-15T13:41:52.266Z,2.43
2017-12-15T13:44:20.556Z,2.17
2017-12-15T13:46:48.851Z,1.60
2017-12-15T13:49:17.204Z,1.77
2017-12-15T13:51:45.487Z,2.10
2017-12-15T13:54:13.779Z,1.77
2017-12-15T13:56:42.088Z,2.20
2017-12-15T13:59:10.559Z,2.00
2017-12-15T14:01:38.850Z,1.70
2017-12-15T14:04:07.159Z,2.50
2017-12-15T14:06:35.444Z,1.77
2017-12-15T14:09:03.775Z,1.90
2017-12-15T14:11:32.092Z,1.40
2017-12-15T14:14:00.575Z,1.97
2017-12-15T14:16:29.119Z,1.50
2017-12-15T14:18:57.433Z,1.97
2017-12-15T14:21:25.871Z,2.43
2017-12-15T14:23:54.135Z,1.83
2017-12-15T14:26:22.407Z,1.70
2017-12-15T14:28:50.648Z,1.63
2017-12-15T14:31:19.325Z,2.50
2017-12-15T14:33:48.035Z,1.93
2017-12-15T14:36:16.311Z,2.07
2017-12-15T14:38:44.895Z,1.73
2017-12-15T14:41:13.224Z,1.97
2017-12-15T14:43:41.525Z,1.90
2017-12-15T14:46:09.872Z,1.83
2017-12-15T14:48:43.876Z,2.20
2017-12-15T14:51:06.509Z,1.50
2017-12-15T14:53:34.775Z,1.70
2017-12-15T14:56:03.143Z,1.90
2017-12-15T14:58:31.438Z,1.60
2017-12-15T15:00:59.953Z,2.00
2017-12-15T15:03:28.211Z,1.50
2017-12-15T15:05:56.539Z,1.60
2017-12-15T15:08:25.104Z,1.77
2017-12-15T15:10:53.553Z,1.93
2017-12-15T15:13:21.835Z,1.77
2017-12-15T15:15:50.134Z,1.47
2017-12-15T15:18:18.398Z,1.60
2017-12-15T15:20:46.866Z,2.13
2017-12-15T15:23:15.170Z,2.03
2017-12-15T15:25:43.466Z,2.53
2017-12-15T15:28:11.884Z,2.23
2017-12-15T15:30:40.184Z,1.80
2017-12-15T15:33:08.532Z,1.67
2017-12-15T15:35:36.896Z,1.60
2017-12-15T15:38:05.202Z,2.13
2017-12-15T15:40:33.687Z,1.97
2017-12-15T15:43:01.951Z,2.17
2017-12-15T15:45:30.246Z,1.80
2017-12-15T15:47:58.494Z,2.00
2017-12-15T15:50:26.778Z,1.90
2017-12-15T15:52:55.266Z,2.30
2017-12-15T15:55:23.770Z,2.70
2017-12-15T15:57:52.055Z,2.00
2017-12-15T16:00:20.533Z,1.90
2017-12-15T16:02:48.803Z,2.40
2017-12-15T16:05:17.116Z,2.23
2017-12-15T16:07:45.532Z,2.30
2017-12-15T16:10:13.819Z,2.30
2017-12-15T16:12:42.123Z,2.40
2017-12-15T16:15:10.440Z,2.80
2017-12-15T16:17:38.812Z,2.73
2017-12-15T16:20:07.115Z,2.10
2017-12-15T16:22:35.598Z,2.37
2017-12-15T16:25:03.999Z,1.90
2017-12-15T16:27:32.325Z,2.00
2017-12-15T16:30:00.647Z,2.20
2017-12-15T16:32:28.960Z,2.00
2017-12-15T16:34:57.252Z,2.20
2017-12-15T16:37:25.671Z,2.07
2017-12-15T16:39:53.963Z,1.93
2017-12-15T16:42:22.339Z,1.90
2017-12-15T16:44:50.670Z,2.07
2017-12-15T16:47:18.988Z,2.80
2017-12-15T16:49:47.279Z,2.50
2017-12-15T16:52:15.731Z,2.10
2017-12-15T16:54:44.075Z,2.77
2017-12-15T16:57:12.612Z,2.83
2017-12-15T16:59:40.935Z,4.10
2017-12-15T17:02:09.445Z,5.40
2017-12-15T17:04:37.763Z,6.20
2017-12-15T17:07:06.648Z,6.00
2017-12-15T17:09:34.984Z,7.10
2017-12-15T17:12:03.331Z,6.10
2017-12-15T17:14:31.591Z,7.37
2017-12-15T17:16:59.862Z,9.13
2017-12-15T17:19:28.428Z,10.47
2017-12-15T17:21:56.727Z,10.83
2017-12-15T17:24:25.031Z,11.40
2017-12-15T17:26:53.476Z,11.43
2017-12-15T17:29:21.792Z,12.93
2017-12-15T17:31:50.212Z,12.00
2017-12-15T17:34:18.551Z,13.17
2017-12-15T17:36:46.887Z,12.00
2017-12-15T17:39:15.163Z,11.87
2017-12-15T17:41:43.492Z,11.97
2017-12-15T17:44:11.818Z,10.90
2017-12-15T17:46:40.291Z,10.80
2017-12-15T17:49:08.600Z,11.80
2017-12-15T17:51:36.909Z,11.93
2017-12-15T17:54:05.287Z,11.10
2017-12-15T17:56:33.627Z,11.50
2017-12-15T17:59:01.931Z,11.10
2017-12-15T18:01:30.699Z,10.77
2017-12-15T18:03:59.004Z,12.20
2017-12-15T18:06:30.342Z,10.60
2017-12-15T18:08:58.647Z,10.47
2017-12-15T18:11:27.132Z,11.20
2017-12-15T18:13:55.579Z,10.10
2017-12-15T18:16:23.867Z,10.80
2017-12-15T18:18:52.167Z,10.27
2017-12-15T18:21:20.465Z,10.10
2017-12-15T18:23:48.800Z,9.70
2017-12-15T18:26:17.195Z,9.47
2017-12-15T18:28:45.474Z,9.53
2017-12-15T18:31:13.773Z,9.10
2017-12-15T18:33:43.411Z,9.67
2017-12-15T18:36:11.729Z,8.93
2017-12-15T18:38:40.087Z,9.07
2017-12-15T18:41:08.518Z,9.33
2017-12-15T18:43:36.795Z,9.53
2017-12-15T18:46:05.130Z,9.40
2017-12-15T18:48:33.595Z,9.10
2017-12-15T18:51:01.964Z,9.70
2017-12-15T18:53:30.308Z,8.50
2017-12-15T18:55:58.639Z,9.43
2017-12-15T18:58:26.975Z,7.63
2017-12-15T19:00:55.632Z,8.90
2017-12-15T19:03:24.309Z,7.93
2017-12-15T19:05:52.675Z,8.83
2017-12-15T19:08:21.171Z,8.00
2017-12-15T19:10:49.540Z,7.93
2017-12-15T19:13:17.836Z,7.43
2017-12-15T19:15:46.235Z,7.03
2017-12-15T19:18:14.736Z,7.17
2017-12-15T19:20:43.041Z,7.10
2017-12-15T19:23:11.287Z,6.90
2017-12-15T19:25:39.603Z,7.37
2017-12-15T19:28:08.074Z,7.10
2017-12-15T19:30:36.743Z,6.43
2017-12-15T19:33:05.031Z,7.10
2017-12-15T19:35:33.415Z,6.97
2017-12-15T19:38:01.695Z,6.83
2017-12-15T19:40:30.054Z,5.70
2017-12-15T19:42:58.698Z,6.47
2017-12-15T19:45:26.980Z,7.40
2017-12-15T19:47:55.278Z,6.23
2017-12-15T19:50:23.590Z,5.77
2017-12-15T19:52:52.055Z,6.50
2017-12-15T19:55:20.590Z,5.70
2017-12-15T19:57:48.983Z,5.90
2017-12-15T20:00:17.280Z,5.90
2017-12-15T20:02:45.576Z,5.43
2017-12-15T20:05:14.514Z,5.97
2017-12-15T20:07:43.316Z,5.40
2017-12-15T20:10:12.504Z,6.10
2017-12-15T20:12:41.079Z,5.70
2017-12-15T20:15:09.378Z,5.23
2017-12-15T20:17:37.845Z,5.27
2017-12-15T20:20:06.163Z,5.30
2017-12-15T20:22:34.594Z,5.20
2017-12-15T20:25:02.908Z,5.40
2017-12-15T20:27:31.436Z,5.00
2017-12-15T20:30:00.242Z,5.20
2017-12-15T20:32:28.636Z,5.47
2017-12-15T20:34:57.000Z,5.53
2017-12-15T20:37:25.425Z,5.20
2017-12-15T20:39:53.706Z,5.20
2017-12-15T20:42:22.039Z,5.20
2017-12-15T20:44:50.318Z,5.23
2017-12-15T20:47:18.676Z,5.43
2017-12-15T20:49:47.171Z,5.80
2017-12-15T20:52:15.544Z,5.67
2017-12-15T20:54:44.272Z,5.17
2017-12-15T20:57:12.686Z,5.83
2017-12-15T20:59:40.972Z,4.63
2017-12-15T21:02:09.328Z,5.70
2017-12-15T21:04:37.807Z,5.00
2017-12-15T21:07:06.956Z,5.57
2017-12-15T21:09:35.305Z,3.70
2017-12-15T21:12:03.772Z,5.10
2017-12-15T21:14:34.075Z,4.60
2017-12-15T21:17:03.248Z,4.87
2017-12-15T21:19:31.576Z,5.00
2017-12-15T21:21:59.988Z,4.40
2017-12-15T21:24:28.790Z,4.40
2017-12-15T21:26:57.207Z,4.47
2017-12-15T21:29:25.723Z,4.30
2017-12-15T21:31:54.379Z,4.33
2017-12-15T21:34:22.715Z,4.40
2017-12-15T21:36:51.140Z,4.07
2017-12-15T21:39:19.763Z,4.43
2017-12-15T21:41:48.096Z,4.33
2017-12-15T21:44:16.542Z,4.00
2017-12-15T21:46:44.810Z,4.03
2017-12-15T21:49:13.770Z,4.33
2017-12-15T21:51:42.413Z,4.67
2017-12-15T21:54:10.851Z,4.17
2017-12-15T21:56:40.451Z,3.93
2017-12-15T21:59:10.892Z,3.70
2017-12-15T22:01:41.345Z,4.03
2017-12-15T22:04:09.918Z,4.57
2017-12-15T22:06:39.838Z,3.83
2017-12-15T22:09:10.723Z,3.87
2017-12-15T22:11:39.738Z,3.90
2017-12-15T22:14:08.291Z,3.70
2017-12-15T22:16:36.636Z,3.97
2017-12-15T22:19:05.176Z,3.87
2017-12-15T22:21:35.548Z,4.00
2017-12-15T22:24:03.839Z,3.83
2017-12-15T22:26:32.207Z,3.93
2017-12-15T22:29:05.235Z,4.60
2017-12-15T22:31:34.526Z,3.80
2017-12-15T22:34:03.614Z,3.87
2017-12-15T22:36:32.098Z,3.80
2017-12-15T22:39:00.555Z,4.00
2017-12-15T22:41:28.850Z,3.93
2017-12-15T22:43:57.207Z,4.47
2017-12-15T22:46:25.567Z,3.97
2017-12-15T22:48:53.847Z,3.93
2017-12-15T22:51:22.197Z,3.77
2017-12-15T22:53:50.506Z,3.93
2017-12-15T22:56:18.914Z,3.70
2017-12-15T22:58:47.222Z,4.10
2017-12-15T23:01:15.658Z,4.13
2017-12-15T23:03:44.558Z,4.07
2017-12-15T23:06:13.251Z,3.90
2017-12-15T23:08:41.574Z,3.60
2017-12-15T23:11:09.916Z,3.80
2017-12-15T23:13:38.239Z,3.43
2017-12-15T23:16:06.579Z,3.83
2017-12-15T23:18:34.942Z,4.80
2017-12-15T23:21:03.539Z,4.03
2017-12-15T23:23:31.915Z,3.47
2017-12-15T23:26:00.299Z,4.20
2017-12-15T23:28:29.460Z,4.10
2017-12-15T23:30:58.822Z,4.30
2017-12-15T23:33:27.281Z,4.17
2017-12-15T23:35:55.771Z,3.93
2017-12-15T23:38:24.082Z,3.97
2017-12-15T23:40:53.544Z,3.23
2017-12-15T23:43:22.087Z,3.47
2017-12-15T23:45:50.695Z,3.83
2017-12-15T23:48:19.399Z,3.97
2017-12-15T23:50:48.063Z,3.83
2017-12-15T23:53:16.797Z,3.93
2017-12-15T23:55:56.716Z,4.27
2017-12-15T23:58:25.404Z,3.43
